Time;durP1;ratioP1;P1;durP2;ratioP2;P2;SDS_P1;SDS_P2;PMS_P1;PMS_P2;Temp;Humidity;BMP_temperature;BMP_pressure;BME280_temperature;BME280_humidity;BME280_pressure;Samples;Min_cycle;Max_cycle;Signal;HPM_P1;HPM_P2
2021/03/06 00:02:05;;;;;;;17.98;14.50;;;4.90;99.90;;;;;;5076391;28;20107;-51
2021/03/06 00:04:30;;;;;;;20.23;16.00;;;5.00;99.90;;;;;;5076308;28;20036;-50
2021/03/06 00:06:56;;;;;;;17.20;14.10;;;4.90;99.90;;;;;;5076588;28;20546;-51
2021/03/06 00:09:22;;;;;;;17.30;14.88;;;4.90;99.90;;;;;;5076065;28;20036;-49
2021/03/06 00:11:48;;;;;;;18.13;14.50;;;4.80;99.90;;;;;;5076533;28;20086;-53
2021/03/06 00:14:13;;;;;;;15.57;12.68;;;4.80;99.90;;;;;;5076674;28;20135;-49
2021/03/06 00:16:39;;;;;;;18.90;15.63;;;4.80;99.90;;;;;;5076471;28;20032;-51
2021/03/06 00:19:05;;;;;;;16.55;13.10;;;4.80;99.90;;;;;;5091382;28;20029;-51
2021/03/06 00:21:30;;;;;;;16.13;12.77;;;4.80;99.90;;;;;;5076226;28;20033;-48
2021/03/06 00:23:57;;;;;;;16.27;14.13;;;;;;;;;;5076001;28;20037;-52
2021/03/06 00:26:22;;;;;;;17.65;13.70;;;4.60;99.90;;;;;;5076370;28;20071;-51
2021/03/06 00:28:48;;;;;;;17.30;14.07;;;4.70;99.90;;;;;;5076165;28;20427;-51
2021/03/06 00:31:15;;;;;;;17.30;14.43;;;;;;;;;;5076011;28;20071;-53
2021/03/06 00:33:40;;;;;;;13.75;10.57;;;4.40;99.90;;;;;;5075908;28;20055;-51
2021/03/06 00:36:07;;;;;;;12.93;10.02;;;4.30;99.90;;;;;;5075891;28;20024;-52
2021/03/06 00:38:32;;;;;;;17.40;15.38;;;4.00;99.90;;;;;;5039853;28;20086;-53
2021/03/06 00:40:59;;;;;;;19.02;16.70;;;4.10;99.90;;;;;;5073449;28;20430;-53
2021/03/06 00:43:24;;;;;;;17.30;13.98;;;4.10;99.90;;;;;;5075716;28;20028;-50
2021/03/06 00:45:50;;;;;;;19.58;16.00;;;4.00;99.90;;;;;;5075587;28;20025;-51
2021/03/06 00:48:16;;;;;;;19.65;14.85;;;;;;;;;;5075574;28;20368;-52
2021/03/06 00:50:42;;;;;;;8.38;6.45;;;4.10;99.90;;;;;;5075514;28;20020;-52
2021/03/06 00:53:08;;;;;;;20.45;16.83;;;3.90;99.90;;;;;;5075453;28;20029;-51
2021/03/06 00:55:34;;;;;;;19.02;15.60;;;;;;;;;;5090289;28;20036;-53
2021/03/06 00:58:00;;;;;;;19.73;17.55;;;3.90;99.90;;;;;;5075461;28;20132;-51
2021/03/06 01:00:25;;;;;;;20.58;16.80;;;4.10;99.90;;;;;;5075487;28;20056;-53
2021/03/06 01:02:51;;;;;;;18.92;16.50;;;4.10;99.90;;;;;;5073392;28;20036;-50
2021/03/06 01:05:17;;;;;;;18.27;15.77;;;4.10;99.90;;;;;;5073359;28;20472;-48
2021/03/06 01:07:43;;;;;;;13.40;10.48;;;4.10;99.90;;;;;;5075182;28;20111;-52
2021/03/06 01:10:16;;;;;;;16.00;12.80;;;4.00;99.90;;;;;;5075135;28;20476;-51
2021/03/06 01:12:42;;;;;;;19.05;16.50;;;3.90;99.90;;;;;;5074839;28;20115;-50
2021/03/06 01:15:08;;;;;;;19.27;14.95;;;4.00;99.90;;;;;;5075168;28;20056;-52
2021/03/06 01:17:34;;;;;;;16.65;14.45;;;4.10;99.90;;;;;;5072623;28;20032;-49
2021/03/06 01:20:00;;;;;;;14.50;11.48;;;4.00;99.90;;;;;;5075392;28;20098;-53
2021/03/06 01:22:25;;;;;;;19.42;16.35;;;4.10;99.90;;;;;;5075015;28;20487;-52
2021/03/06 01:24:51;;;;;;;19.48;16.65;;;4.20;99.90;;;;;;5072683;28;20037;-52
2021/03/06 01:27:17;;;;;;;16.10;12.05;;;4.20;99.90;;;;;;5072874;28;20043;-53
2021/03/06 01:29:43;;;;;;;14.20;10.70;;;4.10;99.90;;;;;;5074809;28;20025;-53
2021/03/06 01:32:09;;;;;;;20.02;16.30;;;4.00;99.90;;;;;;5074557;28;20029;-54
2021/03/06 01:34:35;;;;;;;19.20;16.73;;;4.00;99.90;;;;;;5074937;28;20036;-51
2021/03/06 01:37:01;;;;;;;19.33;14.77;;;4.20;99.90;;;;;;5074613;28;20113;-54
2021/03/06 01:39:27;;;;;;;15.70;12.77;;;4.10;99.90;;;;;;5072503;28;20094;-50
2021/03/06 01:42:01;;;;;;;17.73;14.15;;;4.10;99.90;;;;;;5074608;28;20029;-50
2021/03/06 01:44:27;;;;;;;20.40;17.45;;;4.20;99.90;;;;;;5074544;28;20032;-51
2021/03/06 01:46:53;;;;;;;22.40;16.92;;;;;;;;;;5074151;28;20037;-54
2021/03/06 01:49:19;;;;;;;23.10;18.02;;;4.40;99.90;;;;;;5074335;28;20036;-50
2021/03/06 01:51:45;;;;;;;22.20;18.55;;;4.50;99.90;;;;;;5074707;28;20024;-51
2021/03/06 01:54:12;;;;;;;20.85;16.52;;;4.70;99.90;;;;;;5073687;28;20078;-52
2021/03/06 01:56:38;;;;;;;21.25;17.52;;;4.60;99.90;;;;;;5089048;28;20044;-48
2021/03/06 01:59:03;;;;;;;19.55;17.00;;;4.70;99.90;;;;;;5074125;28;20056;-51
2021/03/06 02:01:30;;;;;;;16.58;12.02;;;4.60;99.90;;;;;;5073959;28;20067;-49
2021/03/06 02:03:58;;;;;;;20.40;15.88;;;4.60;99.90;;;;;;5073932;28;20025;-50
2021/03/06 02:06:24;;;;;;;17.98;14.68;;;4.70;99.90;;;;;;5088979;28;20028;-51
2021/03/06 02:08:50;;;;;;;16.50;14.15;;;;;;;;;;5073796;28;20037;-53
2021/03/06 02:11:24;;;;;;;19.13;15.82;;;;;;;;;;5073958;28;20025;-52
2021/03/06 02:13:50;;;;;;;19.10;16.15;;;;;;;;;;5073992;28;20032;-52
2021/03/06 02:16:25;;;;;;;23.23;16.83;;;4.80;99.90;;;;;;5073866;28;20485;-50
2021/03/06 02:19:03;;;;;;;15.48;12.43;;;4.80;99.90;;;;;;5071868;28;20040;-48
2021/03/06 02:21:58;;;;;;;7.72;5.60;;;4.60;99.90;;;;;;5088680;28;20040;-54
2021/03/06 02:24:55;;;;;;;14.50;10.55;;;4.40;99.90;;;;;;5051555;28;20091;-52
2021/03/06 02:27:20;;;;;;;18.33;15.15;;;4.40;99.90;;;;;;5034671;28;20075;-49
2021/03/06 02:30:07;;;;;;;15.75;12.60;;;4.60;99.90;;;;;;5051535;28;20061;-53
2021/03/06 02:32:43;;;;;;;11.88;8.50;;;4.40;99.90;;;;;;5018216;28;20115;-49
2021/03/06 02:35:14;;;;;;;17.75;15.13;;;4.30;99.90;;;;;;5051292;28;20037;-54
2021/03/06 02:37:46;;;;;;;17.63;12.07;;;4.30;99.90;;;;;;5050991;28;20075;-51
2021/03/06 02:40:13;;;;;;;16.13;12.75;;;4.30;99.90;;;;;;5051344;28;20021;-51
2021/03/06 02:42:41;;;;;;;16.98;13.40;;;4.40;99.90;;;;;;5018538;28;20060;-50
2021/03/06 02:45:09;;;;;;;16.02;12.57;;;4.40;99.90;;;;;;5051111;28;20114;-52
2021/03/06 02:47:35;;;;;;;16.85;11.57;;;4.50;99.90;;;;;;4985519;28;20471;-49
2021/03/06 02:50:04;;;;;;;17.40;14.60;;;4.50;99.90;;;;;;5051443;28;20432;-49
2021/03/06 02:52:30;;;;;;;17.95;13.63;;;4.60;99.90;;;;;;5017932;28;20033;-50
2021/03/06 02:54:56;;;;;;;16.38;12.00;;;;;;;;;;5051179;28;20550;-48
2021/03/06 02:57:37;;;;;;;13.07;9.90;;;;;;;;;;5050743;28;20049;-51
2021/03/06 03:00:13;;;;;;;14.75;11.90;;;4.70;99.90;;;;;;5055279;28;20115;-51
2021/03/06 03:02:48;;;;;;;12.05;9.55;;;;;;;;;;5073392;28;20025;-51
2021/03/06 03:05:25;;;;;;;16.55;13.50;;;;;;;;;;5091572;28;20491;-50
2021/03/06 03:07:58;;;;;;;13.50;10.15;;;;;;;;;;5076973;28;20028;-50
2021/03/06 03:10:25;;;;;;;12.45;9.05;;;;;;;;;;5077446;28;20024;-52
2021/03/06 03:13:02;;;;;;;13.07;10.00;;;;;;;;;;5077279;28;20426;-51
2021/03/06 03:15:28;;;;;;;11.27;8.35;;;;;;;;;;5077042;28;20498;-53
2021/03/06 03:17:55;;;;;;;11.52;7.55;;;4.30;99.90;;;;;;5077153;28;20356;-51
2021/03/06 03:20:30;;;;;;;9.93;6.97;;;4.50;99.90;;;;;;5077340;28;20032;-49
2021/03/06 03:23:01;;;;;;;9.27;6.68;;;4.50;99.90;;;;;;5074875;28;20059;-53
2021/03/06 03:25:28;;;;;;;7.65;5.85;;;;;;;;;;5076874;28;20486;-54
2021/03/06 03:27:55;;;;;;;5.13;3.80;;;4.20;99.90;;;;;;5076899;28;20367;-51
2021/03/06 03:30:22;;;;;;;6.80;5.10;;;4.00;99.90;;;;;;5076826;28;20115;-52
2021/03/06 03:32:51;;;;;;;6.78;5.15;;;4.00;99.90;;;;;;5076836;28;20086;-48
2021/03/06 03:35:19;;;;;;;5.57;4.55;;;4.00;99.90;;;;;;5076713;28;20032;-50
2021/03/06 03:37:48;;;;;;;7.70;6.07;;;4.00;99.90;;;;;;5076753;28;20382;-49
2021/03/06 03:40:17;;;;;;;10.15;6.85;;;4.00;99.90;;;;;;5076954;28;20409;-48
2021/03/06 03:42:42;;;;;;;6.93;5.72;;;4.10;99.90;;;;;;5058347;28;20039;-53
2021/03/06 03:45:10;;;;;;;9.15;7.60;;;4.10;99.90;;;;;;5076402;28;20024;-50
2021/03/06 03:47:39;;;;;;;11.20;8.52;;;4.20;99.90;;;;;;5040511;28;20106;-48
2021/03/06 03:50:07;;;;;;;12.02;9.88;;;4.50;99.90;;;;;;5076425;28;20115;-51
2021/03/06 03:52:43;;;;;;;13.40;11.25;;;4.60;99.90;;;;;;5057678;28;20039;-50
2021/03/06 03:55:09;;;;;;;9.93;6.85;;;4.90;99.90;;;;;;5076344;28;20021;-52
2021/03/06 03:57:36;;;;;;;9.85;8.75;;;4.70;99.90;;;;;;5057343;28;20078;-51
2021/03/06 04:00:10;;;;;;;8.30;7.22;;;4.70;99.90;;;;;;5076127;28;20036;-53
2021/03/06 04:02:36;;;;;;;9.52;7.55;;;4.60;99.90;;;;;;5074365;28;20040;-51
2021/03/06 04:05:04;;;;;;;10.30;7.82;;;4.80;99.90;;;;;;5091314;28;20048;-48
2021/03/06 04:07:39;;;;;;;8.40;6.70;;;;;;;;;;5073602;28;20047;-51
2021/03/06 04:10:06;;;;;;;9.98;7.03;;;4.90;99.90;;;;;;5073897;28;20037;-52
2021/03/06 04:12:31;;;;;;;8.48;7.00;;;5.10;99.90;;;;;;5057277;28;20530;-52
2021/03/06 04:14:57;;;;;;;9.48;6.85;;;5.10;99.90;;;;;;5073375;28;20068;-51
2021/03/06 04:17:23;;;;;;;7.35;6.38;;;5.20;99.90;;;;;;5073336;28;20029;-52
2021/03/06 04:19:48;;;;;;;9.57;6.95;;;5.20;99.90;;;;;;5073864;28;20075;-49
2021/03/06 04:22:14;;;;;;;6.88;5.90;;;5.30;99.90;;;;;;5073536;28;20036;-50
2021/03/06 04:24:40;;;;;;;8.45;6.35;;;5.20;99.90;;;;;;5056949;28;20037;-52
2021/03/06 04:27:06;;;;;;;8.63;6.05;;;5.20;99.90;;;;;;5056920;28;20041;-52
2021/03/06 04:29:32;;;;;;;8.55;6.40;;;5.10;99.90;;;;;;5073502;28;20032;-54
2021/03/06 04:31:57;;;;;;;10.50;6.13;;;5.00;99.90;;;;;;5073609;28;20507;-54
2021/03/06 04:34:23;;;;;;;6.70;5.65;;;5.00;99.90;;;;;;5040188;28;20036;-50
2021/03/06 04:36:49;;;;;;;5.10;3.75;;;5.00;99.90;;;;;;5056070;28;20044;-53
2021/03/06 04:39:15;;;;;;;8.07;6.40;;;4.90;99.90;;;;;;5072946;28;20041;-51
2021/03/06 04:41:40;;;;;;;6.43;5.75;;;4.90;99.90;;;;;;5056090;28;20044;-53
2021/03/06 04:44:07;;;;;;;7.88;5.10;;;4.90;99.90;;;;;;5039788;28;20040;-49
2021/03/06 04:46:33;;;;;;;6.47;4.63;;;4.70;99.90;;;;;;5073572;28;20043;-51
2021/03/06 04:49:01;;;;;;;6.65;5.65;;;4.50;99.90;;;;;;5075491;28;20382;-50
2021/03/06 04:51:27;;;;;;;9.55;5.05;;;4.70;99.90;;;;;;5075456;28;20033;-53
2021/03/06 04:53:53;;;;;;;6.53;5.47;;;4.40;99.90;;;;;;5075208;28;20036;-54
2021/03/06 04:56:18;;;;;;;8.20;5.85;;;4.60;99.90;;;;;;5076878;28;20117;-53
2021/03/06 04:58:44;;;;;;;5.75;4.75;;;4.60;99.90;;;;;;5041110;28;20080;-51
2021/03/06 05:01:10;;;;;;;6.72;4.22;;;4.70;99.90;;;;;;5073278;28;20032;-49
2021/03/06 05:03:35;;;;;;;7.70;5.18;;;4.50;99.90;;;;;;5075183;28;20020;-51
2021/03/06 05:06:01;;;;;;;10.75;6.85;;;4.70;99.90;;;;;;5055938;28;20032;-54
2021/03/06 05:08:27;;;;;;;9.20;6.47;;;4.70;99.90;;;;;;5074914;28;20058;-50
2021/03/06 05:10:53;;;;;;;9.07;6.45;;;4.70;99.90;;;;;;5073246;28;20087;-53
2021/03/06 05:13:18;;;;;;;7.90;5.75;;;4.70;99.90;;;;;;5075162;28;20032;-49
2021/03/06 05:15:44;;;;;;;7.65;6.28;;;4.80;99.90;;;;;;5074949;28;20058;-49
2021/03/06 05:18:10;;;;;;;8.73;6.63;;;4.90;99.90;;;;;;5074948;28;20056;-51
2021/03/06 05:20:36;;;;;;;9.88;6.22;;;4.90;99.90;;;;;;5074792;28;20024;-53
2021/03/06 05:23:01;;;;;;;7.57;5.65;;;5.00;99.90;;;;;;5075096;28;20028;-53
2021/03/06 05:25:27;;;;;;;12.60;6.05;;;4.80;99.90;;;;;;5073037;28;20376;-50
2021/03/06 05:27:53;;;;;;;7.65;6.10;;;4.90;99.90;;;;;;5073644;28;20067;-50
2021/03/06 05:30:20;;;;;;;8.23;6.25;;;5.00;99.90;;;;;;5039257;28;20044;-51
2021/03/06 05:32:46;;;;;;;10.98;7.13;;;5.10;99.90;;;;;;5055940;28;20050;-52
2021/03/06 05:35:12;;;;;;;10.30;6.03;;;5.20;99.90;;;;;;5074486;28;20372;-51
2021/03/06 05:37:38;;;;;;;8.93;7.05;;;4.80;99.90;;;;;;5074831;28;20029;-50
2021/03/06 05:40:04;;;;;;;11.40;6.55;;;4.80;99.90;;;;;;5074974;28;20025;-52
2021/03/06 05:42:31;;;;;;;7.88;6.00;;;4.90;99.90;;;;;;5055509;28;20475;-51
2021/03/06 05:44:58;;;;;;;7.72;5.93;;;4.90;99.90;;;;;;5075000;28;20025;-54
2021/03/06 05:47:26;;;;;;;8.57;5.82;;;5.10;99.90;;;;;;5072622;28;20041;-47
2021/03/06 05:49:51;;;;;;;9.68;6.05;;;5.00;99.90;;;;;;5075187;28;20036;-54
2021/03/06 05:52:20;;;;;;;10.55;6.88;;;5.20;99.90;;;;;;5074558;28;20089;-51
2021/03/06 05:54:49;;;;;;;9.40;5.47;;;5.30;99.90;;;;;;5074401;28;20426;-52
2021/03/06 05:57:19;;;;;;;8.27;6.45;;;5.10;99.90;;;;;;5074239;28;20456;-53
2021/03/06 05:59:46;;;;;;;9.60;6.25;;;5.10;99.90;;;;;;5074322;28;20021;-48
2021/03/06 06:02:15;;;;;;;10.38;6.97;;;5.10;99.90;;;;;;5074659;28;20029;-48
2021/03/06 06:04:42;;;;;;;11.10;7.85;;;5.20;99.90;;;;;;5073873;28;20020;-51
2021/03/06 06:07:08;;;;;;;11.98;9.23;;;5.00;99.90;;;;;;5074438;28;20036;-50
2021/03/06 06:09:34;;;;;;;10.10;7.32;;;5.20;99.90;;;;;;5073866;28;20037;-51
2021/03/06 06:12:00;;;;;;;8.70;6.97;;;5.10;99.90;;;;;;5071899;28;20040;-48
2021/03/06 06:14:26;;;;;;;7.72;6.35;;;5.10;99.90;;;;;;5073941;28;20028;-52
2021/03/06 06:16:53;;;;;;;7.43;6.32;;;4.90;99.90;;;;;;5073788;28;20028;-49
2021/03/06 06:19:19;;;;;;;8.93;6.78;;;4.90;99.90;;;;;;5073981;28;20099;-53
2021/03/06 06:21:47;;;;;;;10.40;6.82;;;4.90;99.90;;;;;;5073792;28;20028;-52
2021/03/06 06:24:19;;;;;;;11.25;7.13;;;4.90;99.90;;;;;;5089044;28;20379;-52
2021/03/06 06:27:03;;;;;;;10.43;6.22;;;5.10;99.90;;;;;;5073693;28;20020;-49
2021/03/06 06:29:40;;;;;;;8.82;6.63;;;4.70;99.90;;;;;;5074202;28;20040;-52
2021/03/06 06:32:08;;;;;;;10.65;6.68;;;4.80;99.90;;;;;;5073835;28;20047;-53
2021/03/06 06:34:35;;;;;;;8.73;6.15;;;4.80;99.90;;;;;;5073339;28;20037;-53
2021/03/06 06:37:10;;;;;;;10.15;7.32;;;4.60;99.90;;;;;;5073760;28;20036;-49
2021/03/06 06:39:36;;;;;;;10.73;7.55;;;4.60;99.90;;;;;;5073247;28;20037;-50
2021/03/06 06:42:02;;;;;;;10.45;6.72;;;4.70;99.90;;;;;;5071350;28;20041;-49
2021/03/06 06:44:29;;;;;;;9.32;6.72;;;4.70;99.90;;;;;;5071620;28;20041;-49
2021/03/06 06:46:56;;;;;;;10.30;6.05;;;4.80;99.90;;;;;;5088440;28;20101;-50
2021/03/06 06:49:23;;;;;;;9.93;6.95;;;4.60;99.90;;;;;;5073483;28;20127;-50
2021/03/06 06:52:05;;;;;;;12.23;7.88;;;4.60;99.90;;;;;;5071295;28;20356;-48
2021/03/06 06:54:32;;;;;;;23.15;12.90;;;4.80;99.90;;;;;;5073608;28;20024;-50
2021/03/06 06:57:10;;;;;;;11.73;7.32;;;4.90;99.90;;;;;;5072907;28;20490;-49
2021/03/06 06:59:38;;;;;;;9.82;6.97;;;5.00;99.90;;;;;;5054391;28;20396;-49
2021/03/06 07:02:09;;;;;;;10.57;8.10;;;5.00;99.90;;;;;;5073323;28;20036;-50
2021/03/06 07:04:53;;;;;;;10.82;7.70;;;5.00;99.90;;;;;;5073128;28;20402;-49
2021/03/06 07:07:20;;;;;;;9.88;7.25;;;5.10;99.90;;;;;;5073335;28;20036;-50
2021/03/06 07:10:19;;;;;;;27.63;22.38;;;5.10;99.90;;;;;;5073694;28;20063;-50
2021/03/06 07:12:59;;;;;;;41.13;29.75;;;5.20;99.90;;;;;;5070712;28;20514;-49
2021/03/06 07:15:26;;;;;;;36.25;21.67;;;5.10;99.90;;;;;;5070861;28;20071;-50
2021/03/06 07:17:54;;;;;;;170.23;89.70;;;4.60;99.90;;;;;;5070830;28;20051;-50
2021/03/06 07:20:20;;;;;;;43.20;24.63;;;4.60;99.90;;;;;;5071057;28;20029;-50
2021/03/06 07:22:47;;;;;;;117.35;63.90;;;4.90;99.90;;;;;;5070845;28;20551;-51
2021/03/06 07:25:13;;;;;;;40.05;24.95;;;5.00;99.90;;;;;;5071056;28;20554;-51
2021/03/06 07:27:41;;;;;;;48.10;30.05;;;5.10;99.90;;;;;;5070593;28;20029;-52
2021/03/06 07:30:08;;;;;;;22.70;14.48;;;5.00;99.90;;;;;;5070920;28;20116;-49
2021/03/06 07:32:37;;;;;;;56.28;30.17;;;5.10;99.90;;;;;;5020744;28;20044;-51
2021/03/06 07:35:05;;;;;;;32.15;21.63;;;5.10;99.90;;;;;;5070669;28;20041;-50
2021/03/06 07:37:32;;;;;;;13.90;10.35;;;5.30;99.90;;;;;;5020755;28;20049;-51
2021/03/06 07:40:00;;;;;;;11.45;6.40;;;5.40;99.90;;;;;;5070778;28;20036;-50
2021/03/06 07:42:36;;;;;;;14.45;9.18;;;4.90;99.90;;;;;;5070403;28;20047;-49
2021/03/06 07:45:03;;;;;;;10.90;7.65;;;5.00;99.90;;;;;;5070571;28;20114;-50
2021/03/06 07:47:37;;;;;;;16.45;9.98;;;5.00;99.90;;;;;;5070510;28;20040;-52
2021/03/06 07:50:06;;;;;;;12.95;8.93;;;5.50;99.90;;;;;;5073013;28;20128;-49
2021/03/06 07:52:33;;;;;;;13.82;10.23;;;5.40;99.90;;;;;;5074371;28;20045;-50
2021/03/06 07:55:01;;;;;;;11.57;7.97;;;5.50;99.90;;;;;;5076279;28;20111;-49
2021/03/06 07:57:28;;;;;;;10.63;7.95;;;5.60;99.90;;;;;;5076348;28;20055;-49
2021/03/06 07:59:55;;;;;;;13.38;9.27;;;5.60;99.90;;;;;;5076262;28;20029;-51
2021/03/06 08:02:46;;;;;;;10.05;7.07;;;5.60;99.90;;;;;;5076228;28;20367;-50
2021/03/06 08:05:45;;;;;;;12.53;9.37;;;5.60;99.90;;;;;;5076435;28;20048;-48
2021/03/06 08:08:36;;;;;;;11.55;7.20;;;6.00;99.90;;;;;;5074076;28;20505;-50
2021/03/06 08:11:15;;;;;;;9.13;6.65;;;6.00;99.90;;;;;;5073759;28;20445;-50
2021/03/06 08:13:59;;;;;;;11.90;7.90;;;6.20;99.90;;;;;;5073956;28;20403;-48
2021/03/06 08:16:28;;;;;;;12.82;7.85;;;;;;;;;;5073697;28;20052;-49
2021/03/06 08:18:56;;;;;;;10.38;7.70;;;7.20;99.90;;;;;;5073625;28;20040;-50
2021/03/06 08:21:41;;;;;;;11.55;7.80;;;7.30;99.90;;;;;;5073830;28;20433;-50
2021/03/06 08:24:16;;;;;;;10.82;6.85;;;8.00;99.90;;;;;;5073736;28;20556;-50
2021/03/06 08:27:11;;;;;;;12.52;7.28;;;8.40;99.90;;;;;;5073634;28;20032;-50
2021/03/06 08:29:43;;;;;;;9.70;7.32;;;9.30;99.90;;;;;;5073658;28;20202;-50
2021/03/06 08:32:17;;;;;;;11.57;7.10;;;9.20;97.30;;;;;;5073406;28;20036;-50
2021/03/06 08:34:46;;;;;;;10.55;7.40;;;;;;;;;;5073202;28;20044;-50
2021/03/06 08:37:19;;;;;;;9.90;7.22;;;10.10;92.80;;;;;;5073597;28;20477;-51
2021/03/06 08:39:53;;;;;;;9.98;6.68;;;9.50;92.10;;;;;;5073347;28;20340;-51
2021/03/06 08:42:23;;;;;;;13.65;7.32;;;9.00;93.60;;;;;;5073567;28;20064;-51
2021/03/06 08:44:51;;;;;;;12.73;7.35;;;9.20;93.10;;;;;;5075403;28;20040;-50
2021/03/06 08:47:40;;;;;;;11.23;7.25;;;;;;;;;;5090229;28;20044;-49
2021/03/06 08:50:15;;;;;;;8.73;6.38;;;11.40;91.30;;;;;;5073190;28;20070;-50
2021/03/06 08:52:41;;;;;;;12.65;6.90;;;;;;;;;;5073252;28;20044;-51
2021/03/06 08:55:09;;;;;;;12.93;6.85;;;12.70;97.20;;;;;;5073013;28;20036;-50
2021/03/06 08:57:37;;;;;;;14.07;8.85;;;13.40;84.10;;;;;;5022854;28;20048;-50
2021/03/06 09:00:20;;;;;;;11.93;7.15;;;12.80;74.70;;;;;;5022918;28;20123;-50
2021/03/06 09:02:46;;;;;;;12.00;6.65;;;;;;;;;;5072812;28;20040;-50
2021/03/06 09:05:14;;;;;;;11.90;7.03;;;;;;;;;;5073042;28;20028;-50
2021/03/06 09:07:41;;;;;;;8.77;6.57;;;;;;;;;;5072752;28;20099;-50
2021/03/06 09:10:13;;;;;;;12.52;9.15;;;12.40;99.00;;;;;;5072517;28;20063;-51
2021/03/06 09:12:40;;;;;;;12.25;7.60;;;10.90;75.80;;;;;;5073060;28;20028;-49
2021/03/06 09:15:07;;;;;;;11.65;7.65;;;10.60;75.30;;;;;;5022779;28;20557;-52
2021/03/06 09:17:33;;;;;;;11.23;6.63;;;11.40;79.00;;;;;;5023075;28;20047;-52
2021/03/06 09:20:08;;;;;;;12.35;7.35;;;11.70;75.50;;;;;;5072644;28;20045;-49
2021/03/06 09:22:44;;;;;;;11.77;6.88;;;11.20;75.00;;;;;;5006173;28;20051;-49
2021/03/06 09:25:11;;;;;;;9.50;6.30;;;11.00;73.00;;;;;;5072061;28;20123;-50
2021/03/06 09:27:46;;;;;;;8.93;6.75;;;11.30;72.90;;;;;;5073844;28;20059;-49
2021/03/06 09:30:39;;;;;;;23.92;14.13;;;11.00;69.70;;;;;;5074572;28;20051;-49
2021/03/06 09:33:24;;;;;;;16.58;7.97;;;11.20;71.30;;;;;;5074233;28;20131;-49
2021/03/06 09:36:11;;;;;;;15.63;8.10;;;11.80;70.30;;;;;;5074578;28;20036;-46
2021/03/06 09:38:57;;;;;;;11.95;7.72;;;11.70;68.10;;;;;;5071915;28;20118;-52
2021/03/06 09:41:27;;;;;;;11.38;7.57;;;11.10;73.00;;;;;;5072318;28;20123;-50
2021/03/06 09:43:55;;;;;;;10.75;7.15;;;11.30;71.20;;;;;;5072181;28;20047;-52
2021/03/06 09:46:27;;;;;;;12.48;8.27;;;11.20;70.50;;;;;;5072103;28;20032;-49
2021/03/06 09:48:57;;;;;;;53.57;23.50;;;11.50;71.40;;;;;;5072098;28;20095;-51
2021/03/06 09:51:24;;;;;;;8.57;5.82;;;12.10;70.10;;;;;;5072010;28;20297;-53
2021/03/06 09:53:58;;;;;;;61.95;30.10;;;11.00;66.90;;;;;;5072079;28;20174;-50
2021/03/06 09:56:24;;;;;;;11.70;8.68;;;11.10;69.10;;;;;;5069138;28;20032;-52
2021/03/06 09:59:05;;;;;;;9.65;7.20;;;11.40;68.50;;;;;;5071794;28;20083;-52
2021/03/06 10:01:34;;;;;;;12.80;9.07;;;12.70;69.70;;;;;;5071328;28;20072;-52
2021/03/06 10:04:12;;;;;;;14.95;10.95;;;13.60;66.10;;;;;;5071528;28;20044;-53
2021/03/06 10:06:40;;;;;;;14.95;10.45;;;13.00;64.10;;;;;;5071634;28;20085;-52
2021/03/06 10:09:08;;;;;;;10.13;7.68;;;13.40;62.00;;;;;;5072019;28;20048;-51
2021/03/06 10:11:42;;;;;;;9.48;7.90;;;12.90;65.20;;;;;;5073942;28;20054;-56
2021/03/06 10:14:10;;;;;;;11.30;7.45;;;13.60;62.10;;;;;;5073142;28;20020;-51
2021/03/06 10:16:58;;;;;;;10.13;7.57;;;14.40;61.30;;;;;;5073582;28;20067;-53
2021/03/06 10:19:26;;;;;;;13.43;7.07;;;15.30;58.40;;;;;;5074157;28;20089;-51
2021/03/06 10:21:58;;;;;;;41.47;22.88;;;15.50;57.10;;;;;;5074025;28;20441;-54
2021/03/06 10:24:24;;;;;;;16.02;9.63;;;16.50;76.80;;;;;;5088528;28;20415;-53
2021/03/06 10:26:57;;;;;;;43.20;21.08;;;16.40;63.00;;;;;;5073790;28;20067;-51
2021/03/06 10:29:24;;;;;;;18.08;10.73;;;15.90;54.60;;;;;;5088589;28;20426;-52
2021/03/06 10:32:02;;;;;;;9.40;7.57;;;15.80;53.50;;;;;;5073793;28;20152;-53
2021/03/06 10:34:29;;;;;;;44.28;22.83;;;;;;;;;;5073793;28;20082;-51
2021/03/06 10:37:07;;;;;;;7.13;6.25;;;;;;;;;;5088345;28;20495;-53
2021/03/06 10:39:34;;;;;;;10.70;8.63;;;;;;;;;;5073501;28;20078;-50
2021/03/06 10:42:00;;;;;;;7.88;6.15;;;;;;;;;;5073987;28;20032;-49
2021/03/06 10:44:39;;;;;;;10.80;6.72;;;;;;;;;;5073208;28;20500;-49
2021/03/06 10:47:04;;;;;;;8.90;7.43;;;18.90;78.60;;;;;;5073339;28;20443;-45
2021/03/06 10:49:36;;;;;;;9.38;6.78;;;;;;;;;;5073488;28;20040;-54
2021/03/06 10:52:04;;;;;;;23.10;8.13;;;19.20;81.20;;;;;;5073617;28;20028;-50
2021/03/06 10:54:45;;;;;;;10.07;7.10;;;19.00;46.40;;;;;;5073209;28;20469;-47
2021/03/06 10:57:11;;;;;;;8.18;6.45;;;;;;;;;;5073509;28;20349;-52
2021/03/06 10:59:37;;;;;;;10.32;6.53;;;19.50;45.10;;;;;;5073379;28;20017;-48
2021/03/06 11:02:04;;;;;;;7.10;6.25;;;19.40;44.90;;;;;;5073656;28;20032;-49
2021/03/06 11:04:31;;;;;;;7.35;6.57;;;19.40;46.00;;;;;;5073441;28;20039;-48
2021/03/06 11:06:58;;;;;;;18.98;12.10;;;19.20;46.40;;;;;;5073397;28;20056;-46
2021/03/06 11:09:26;;;;;;;13.82;9.80;;;17.00;45.80;;;;;;5073006;28;20047;-53
2021/03/06 11:11:52;;;;;;;10.27;7.00;;;15.30;48.30;;;;;;5073574;28;20289;-46
2021/03/06 11:14:27;;;;;;;12.57;7.90;;;14.90;49.80;;;;;;5073435;28;20044;-47
2021/03/06 11:16:54;;;;;;;29.50;9.82;;;14.10;50.90;;;;;;5088023;28;20048;-49
2021/03/06 11:19:21;;;;;;;8.63;7.07;;;14.20;51.40;;;;;;5073338;28;20119;-50
2021/03/06 11:21:47;;;;;;;17.35;10.45;;;14.40;52.90;;;;;;5073344;28;20028;-52
2021/03/06 11:24:12;;;;;;;7.93;6.55;;;14.20;52.40;;;;;;5073143;28;20616;-51
2021/03/06 11:26:38;;;;;;;7.57;6.55;;;15.20;53.20;;;;;;5077264;28;20025;-49
2021/03/06 11:29:05;;;;;;;9.38;6.55;;;15.40;50.70;;;;;;5074976;28;20048;-51
2021/03/06 11:31:32;;;;;;;9.27;6.72;;;15.70;49.80;;;;;;5076929;28;20036;-50
2021/03/06 11:33:59;;;;;;;9.82;6.20;;;16.00;50.60;;;;;;5076985;28;20533;-51
2021/03/06 11:36:25;;;;;;;7.50;6.00;;;16.50;59.30;;;;;;5076853;28;20029;-51
2021/03/06 11:38:54;;;;;;;11.90;6.90;;;16.70;70.90;;;;;;5091617;28;20043;-50
2021/03/06 11:41:20;;;;;;;9.60;5.28;;;16.90;81.70;;;;;;5076873;28;20043;-50
2021/03/06 11:43:46;;;;;;;11.43;6.47;;;16.30;46.60;;;;;;5076888;28;20115;-50
2021/03/06 11:46:11;;;;;;;13.15;6.53;;;15.90;47.70;;;;;;5076894;28;20047;-50
2021/03/06 11:48:38;;;;;;;9.02;6.22;;;;;;;;;;5076685;28;20480;-51
2021/03/06 11:51:04;;;;;;;8.60;6.03;;;14.80;84.90;;;;;;5091469;28;20045;-52
2021/03/06 11:53:29;;;;;;;10.02;7.20;;;14.20;50.10;;;;;;5076413;28;20384;-50
2021/03/06 11:55:55;;;;;;;8.68;6.63;;;13.80;73.70;;;;;;5076632;28;20078;-53
2021/03/06 11:58:21;;;;;;;11.98;7.88;;;13.60;77.30;;;;;;5076095;28;20154;-51
2021/03/06 12:00:46;;;;;;;10.52;6.25;;;13.50;77.60;;;;;;5057576;28;20119;-51
2021/03/06 12:03:12;;;;;;;9.15;6.35;;;12.90;63.70;;;;;;5076460;28;20040;-51
2021/03/06 12:05:38;;;;;;;8.02;6.18;;;12.10;53.00;;;;;;5076336;28;20040;-51
2021/03/06 12:08:04;;;;;;;8.18;6.22;;;11.80;54.00;;;;;;5076058;28;20028;-52
2021/03/06 12:10:30;;;;;;;9.25;6.57;;;11.60;55.10;;;;;;5075215;28;20040;-54
2021/03/06 12:12:57;;;;;;;7.28;6.30;;;11.50;54.90;;;;;;5076385;28;20379;-53
2021/03/06 12:15:23;;;;;;;9.75;7.35;;;;;;;;;;5075725;28;20397;-50
2021/03/06 12:17:50;;;;;;;8.38;7.18;;;;;;;;;;5076261;28;20108;-55
2021/03/06 12:20:16;;;;;;;9.18;7.15;;;;;;;;;;5076137;28;20033;-51
2021/03/06 12:22:45;;;;;;;10.77;7.55;;;11.00;92.40;;;;;;5090891;28;20044;-55
2021/03/06 12:25:12;;;;;;;8.88;7.32;;;10.60;71.50;;;;;;5076209;28;20383;-56
2021/03/06 12:27:39;;;;;;;9.20;6.72;;;10.40;59.80;;;;;;5075803;28;20111;-51
2021/03/06 12:30:10;;;;;;;7.55;5.55;;;10.30;60.80;;;;;;5075922;28;20086;-58
2021/03/06 12:32:37;;;;;;;11.50;8.35;;;9.90;59.20;;;;;;5073210;28;20051;-54
2021/03/06 12:35:05;;;;;;;9.75;6.80;;;9.70;61.50;;;;;;5075826;28;20103;-52
2021/03/06 12:37:30;;;;;;;9.88;7.30;;;10.10;61.80;;;;;;5067313;28;20120;-52
2021/03/06 12:39:56;;;;;;;9.15;6.60;;;10.60;61.70;;;;;;5073634;28;20115;-54
2021/03/06 12:42:22;;;;;;;32.25;17.77;;;11.30;61.10;;;;;;5075303;28;20028;-57
2021/03/06 12:44:48;;;;;;;179.85;76.50;;;11.90;60.20;;;;;;5075465;28;20036;-56
2021/03/06 12:47:14;;;;;;;154.00;69.95;;;11.50;56.70;;;;;;5075826;28;20039;-56
2021/03/06 12:49:40;;;;;;;14.50;9.20;;;11.30;57.00;;;;;;5074315;28;20691;-58
2021/03/06 12:52:06;;;;;;;127.93;73.65;;;11.30;58.50;;;;;;5075471;28;20028;-53
2021/03/06 12:54:32;;;;;;;15.35;9.75;;;;;;;;;;5073503;28;20440;-55
2021/03/06 12:56:57;;;;;;;9.73;7.63;;;10.90;56.50;;;;;;5075468;28;20055;-56
2021/03/06 12:59:24;;;;;;;20.15;13.80;;;10.50;57.60;;;;;;5074900;28;20048;-56
2021/03/06 13:01:50;;;;;;;20.02;12.73;;;10.40;59.90;;;;;;5075625;28;20050;-55
2021/03/06 13:04:15;;;;;;;14.15;8.65;;;10.20;59.20;;;;;;5075340;28;20478;-54
2021/03/06 13:06:41;;;;;;;13.02;8.60;;;10.10;61.20;;;;;;5075093;28;20055;-56